Latest Weather Observations for Strahan

IDT60801

Issued at 10:02 am EST Wednesday 31 August 2016 (issued every 30 minutes, with the page automatically refreshed every 10 minutes)

About weather observations | Map of weather stations | Latest weather observations for TAS | Other Formats
Station Details ID: 097072 Name: STRAHAN AERODROME Lat: -42.16 Lon: 145.29 Height: 21.0 m
Data from the previous 72 hours. | See also: Recent months at Strahan
Date/Time
EST
Temp
°C
App
Temp
°C
Dew
Point
°C
Rel
Hum
%
Delta-T
°C
Wind Press
QNH
hPa
Press
MSL
hPa
Rain since
9am
mm
Dir  Spd
km/h
Gust
km/h
Spd
kts
Gust
kts
31/10:00am 13.1 11.8 11.3 89 1.0 NNW 9 15 5 8 1009.5 1009.6 0.0
31/09:49am 13.1 11.9 11.5 90 0.9 NNW 9 13 5 7 1009.6 1009.7 0.0
31/09:30am 12.8 11.2 11.4 91 0.7 NNW 11 17 6 9 1009.6 1009.7 0.0
31/09:00am 12.6 11.2 11.0 90 0.8 N 9 11 5 6 1009.6 1009.7 4.0
31/08:30am 12.5 11.2 11.2 92 0.7 NNE 9 13 5 7 1009.6 1009.7 4.0
31/08:00am 11.9 10.5 10.8 93 0.6 NNE 9 11 5 6 1009.4 1009.5 4.0
31/07:30am 11.4 9.8 10.3 93 0.6 NNE 9 13 5 7 1009.3 1009.4 4.0
31/07:23am 11.3 9.7 10.2 93 0.6 NNE 9 13 5 7 1009.3 1009.4 4.0
31/07:00am 11.1 9.8 10.0 93 0.6 NNE 7 11 4 6 1009.2 1009.3 4.0
31/06:47am 11.2 9.9 10.1 93 0.6 N 7 13 4 7 1009.2 1009.3 4.0
31/06:30am 11.1 9.4 10.0 93 0.6 NNE 9 11 5 6 1009.1 1009.2 4.0
31/06:00am 11.2 9.2 10.1 93 0.6 NNE 11 17 6 9 1009.0 1009.1 4.0
31/05:30am 11.2 9.2 10.0 92 0.6 N 11 17 6 9 1008.9 1009.0 4.0
31/05:00am 11.1 8.7 9.9 92 0.6 N 13 19 7 10 1008.9 1009.0 4.0
31/04:51am 11.1 8.7 9.9 92 0.6 NNE 13 17 7 9 1008.9 1009.0 4.0
31/04:42am 11.1 8.7 9.9 92 0.6 N 13 20 7 11 1008.9 1009.0 4.0
31/04:30am 11.1 8.3 9.9 92 0.6 N 15 24 8 13 1008.9 1009.0 4.0
31/04:16am 11.2 8.3 9.8 91 0.7 N 15 24 8 13 1008.9 1009.0 3.4
31/04:00am 11.3 8.0 9.7 90 0.8 N 17 26 9 14 1008.9 1009.0 3.4
31/03:30am 11.4 8.1 9.7 89 0.9 N 17 24 9 13 1008.9 1009.0 3.2
31/03:27am 11.4 8.5 9.7 89 0.9 N 15 22 8 12 1008.9 1009.0 3.2
31/03:00am 11.6 8.2 9.3 86 1.2 N 17 28 9 15 1009.1 1009.2 2.6
31/02:56am 11.7 8.3 9.3 85 1.2 N 17 28 9 15 1009.2 1009.3 2.6
31/02:30am 12.0 8.0 9.0 82 1.5 N 20 33 11 18 1009.4 1009.5 2.6
31/02:00am 12.2 8.1 8.7 79 1.7 N 20 32 11 17 1009.7 1009.8 2.6
31/01:30am 12.2 8.1 8.5 78 1.8 N 20 28 11 15 1009.9 1010.0 2.6
31/01:00am 12.1 7.6 8.6 79 1.7 N 22 32 12 17 1010.0 1010.1 2.6
31/12:30am 12.0 7.5 8.5 79 1.7 N 22 33 12 18 1010.0 1010.1 2.6
31/12:00am 11.8 7.7 8.6 81 1.6 N 20 33 11 18 1010.3 1010.4 2.6
 
Date/Time
EST
Temp
°C
App
Temp
°C
Dew
Point
°C
Rel
Hum
%
Delta-T
°C
Wind Press
QNH
hPa
Press
MSL
hPa
Rain since
9am
mm
Dir  Spd
km/h
Gust
km/h
Spd
kts
Gust
kts
30/11:30pm 11.4 8.0 9.0 85 1.2 N 17 28 9 15 1010.6 1010.7 2.6
30/11:00pm 11.3 8.3 9.2 87 1.1 N 15 24 8 13 1010.9 1011.0 2.6
30/10:30pm 10.9 9.5 9.0 88 0.9 ENE 6 11 3 6 1011.1 1011.2 2.4
30/10:00pm 10.8 9.4 8.9 88 0.9 NW 6 9 3 5 1011.8 1011.9 1.8
30/09:30pm 10.9 9.4 9.0 88 0.9 NW 7 9 4 5 1011.9 1012.0 1.6
30/09:00pm 11.1 9.2 9.0 87 1.0 NNE 9 15 5 8 1012.2 1012.3 1.6
30/08:30pm 11.2 8.5 9.1 87 1.0 N 13 19 7 10 1012.6 1012.7 1.6
30/08:00pm 11.2 9.2 8.8 85 1.2 NNE 9 15 5 8 1012.4 1012.5 1.0
30/07:30pm 12.0 8.7 8.1 77 1.9 NNE 15 20 8 11 1012.6 1012.7 0.2
30/07:00pm 13.2 8.7 7.0 66 3.0 NE 20 33 11 18 1012.5 1012.6 0.0
30/06:30pm 13.2 9.5 6.3 63 3.3 NNE 15 22 8 12 1012.7 1012.8 0.0
30/06:00pm 13.8 10.4 5.9 59 3.8 NE 13 20 7 11 1012.9 1013.0 0.0
30/05:30pm 13.0 9.2 5.7 61 3.4 NE 15 24 8 13 1013.3 1013.4 0.0
30/05:00pm 12.4 10.4 8.5 77 1.9 ENE 9 13 5 7 1013.5 1013.6 0.0
30/04:30pm 13.6 12.2 8.9 73 2.4 NE 6 13 3 7 1014.1 1014.2 0.0
30/04:00pm 14.0 12.6 9.6 75 2.3 W 7 11 4 6 1014.3 1014.4 0.0
30/03:30pm 14.6 14.4 9.0 69 2.9 CALM 0 0 0 0 1014.5 1014.6 0.0
30/03:00pm 14.8 13.3 9.0 68 3.0 NNW 7 11 4 6 1015.0 1015.1 0.0
30/02:30pm 14.6 11.7 8.1 65 3.3 W 13 15 7 8 1015.7 1015.7 0.0
30/02:00pm 14.4 12.4 8.8 69 2.8 SSW 9 11 5 6 1015.7 1015.7 0.0
30/01:30pm 14.1 12.0 8.1 67 3.0 S 9 11 5 6 1016.5 1016.5 0.0
30/01:00pm 14.2 12.2 7.3 63 3.4 SSW 7 13 4 7 1017.3 1017.3 0.0
30/12:30pm 15.2 13.0 6.2 55 4.3 N 7 11 4 6 1017.3 1017.3 0.0
30/12:00pm 15.4 11.6 5.9 53 4.6 ENE 15 26 8 14 1017.5 1017.5 0.0
30/11:30am 14.6 10.7 5.4 54 4.3 NE 15 26 8 14 1017.9 1017.9 0.0
30/11:00am 15.0 12.1 6.3 56 4.2 ENE 11 19 6 10 1018.9 1018.9 0.0
30/10:30am 14.7 11.1 5.2 53 4.5 NE 13 19 7 10 1019.5 1019.5 0.0
30/10:00am 13.6 10.1 5.5 58 3.8 NE 13 20 7 11 1019.9 1019.9 0.0
30/09:30am 12.8 8.9 5.5 61 3.4 NE 15 20 8 11 1020.3 1020.3 0.0
30/09:00am 11.9 7.6 5.3 64 3.0 NE 17 26 9 14 1020.6 1020.6 0.0
30/08:30am 10.4 6.1 5.4 71 2.3 NE 17 24 9 13 1021.0 1021.0 0.0
30/08:00am 8.9 4.6 5.3 78 1.6 NE 17 24 9 13 1021.3 1021.3 0.0
30/07:30am 7.4 3.7 4.7 83 1.2 NE 13 20 7 11 1021.5 1021.5 0.0
30/07:00am 6.4 3.9 4.6 88 0.8 NE 7 11 4 6 1021.6 1021.6 0.0
30/06:30am 6.1 4.1 4.4 89 0.7 E 4 9 2 5 1021.4 1021.4 0.0
30/06:00am 6.1 3.6 4.7 91 0.6 SE 7 9 4 5 1021.3 1021.3 0.0
30/05:30am 5.9 3.0 4.9 93 0.4 SSE 9 11 5 6 1021.7 1021.7 0.0
30/05:00am 5.3 2.8 4.6 95 0.3 SE 7 9 4 5 1021.8 1021.8 0.0
30/04:30am 3.7 0.8 2.8 94 0.4 E 7 13 4 7 1022.0 1022.0 0.0
30/04:00am 3.3 0.6 2.4 94 0.4 ENE 6 9 3 5 1022.2 1022.2 0.0
30/03:30am 3.4 1.1 2.5 94 0.4 ENE 4 7 2 4 1021.8 1021.8 0.0
30/03:00am 3.7 1.4 2.8 94 0.4 SSE 4 6 2 3 1021.1 1021.1 0.0
30/02:30am 3.2 0.8 2.3 94 0.4 SSE 4 7 2 4 1021.7 1021.7 0.0
30/02:00am 4.5 2.0 3.6 94 0.4 SSE 6 6 3 3 1022.0 1022.0 0.0
30/01:30am 3.4 1.1 2.5 94 0.4 ESE 4 6 2 3 1022.2 1022.2 0.0
30/01:00am 3.3 0.9 2.3 93 0.4 ESE 4 6 2 3 1022.8 1022.8 0.0
30/12:30am 4.8 2.2 4.1 95 0.3 SSE 7 11 4 6 1023.2 1023.2 0.0
30/12:00am 3.1 0.7 2.1 93 0.4 SSE 4 6 2 3 1023.5 1023.5 0.0
 
Date/Time
EST
Temp
°C
App
Temp
°C
Dew
Point
°C
Rel
Hum
%
Delta-T
°C
Wind Press
QNH
hPa
Press
MSL
hPa
Rain since
9am
mm
Dir  Spd
km/h
Gust
km/h
Spd
kts
Gust
kts
29/11:30pm 3.2 0.8 2.0 92 0.5 ESE 4 7 2 4 1023.3 1023.3 0.0
29/11:00pm 3.6 1.6 2.4 92 0.5 N 2 7 1 4 1023.5 1023.5 0.0
29/10:30pm 3.4 1.4 2.2 92 0.5 N 2 9 1 5 1023.5 1023.5 0.0
29/10:00pm 4.0 1.3 2.7 91 0.5 ENE 6 7 3 4 1023.3 1023.3 0.0
29/09:30pm 4.6 1.8 3.4 92 0.5 E 7 9 4 5 1023.2 1023.2 0.0
29/09:00pm 4.6 2.0 3.3 91 0.5 ENE 6 7 3 4 1023.1 1023.1 0.0
29/08:30pm 4.8 2.2 3.1 89 0.7 ENE 6 7 3 4 1023.3 1023.3 0.0
29/08:00pm 5.5 2.8 3.8 89 0.7 ENE 7 9 4 5 1023.3 1023.3 0.0
29/07:30pm 6.2 3.7 4.0 86 0.9 E 6 7 3 4 1023.5 1023.5 0.0
29/07:00pm 6.7 4.8 3.0 77 1.5 E 2 6 1 3 1023.4 1023.4 0.0
29/06:30pm 8.2 5.7 3.5 72 2.0 SE 6 7 3 4 1023.2 1023.2 0.0
29/06:00pm 8.9 6.3 3.3 68 2.4 SE 6 7 3 4 1023.1 1023.1 0.0
29/05:30pm 10.8 8.5 4.7 66 2.8 SSE 6 7 3 4 1023.0 1023.0 0.0
29/05:00pm 11.4 8.9 4.8 64 3.0 SSE 7 9 4 5 1023.0 1023.0 0.0
29/04:30pm 12.2 9.5 3.7 56 3.8 SSE 7 9 4 5 1022.9 1022.9 0.0
29/04:00pm 13.9 11.5 4.2 52 4.4 SE 6 9 3 5 1022.7 1022.7 0.0
29/03:30pm 13.5 10.9 3.3 50 4.6 SE 6 9 3 5 1022.6 1022.6 0.0
29/03:00pm 12.5 10.0 4.5 58 3.6 SSE 7 11 4 6 1022.7 1022.7 0.0
29/02:30pm 12.7 9.3 3.9 55 4.0 SE 11 17 6 9 1022.6 1022.6 0.0
29/02:00pm 12.4 9.4 3.9 56 3.8 SE 9 13 5 7 1022.8 1022.8 0.0
29/01:30pm 11.0 7.5 3.5 60 3.3 SSE 11 15 6 8 1022.9 1022.9 0.0
29/01:00pm 12.0 9.5 4.0 58 3.6 SSE 6 11 3 6 1023.1 1023.1 0.0
29/12:30pm 10.4 7.4 3.9 64 2.9 SE 9 13 5 7 1023.4 1023.4 0.0
29/12:00pm 9.6 7.1 4.6 71 2.2 SSE 7 9 4 5 1023.8 1023.8 0.0
29/11:30am 10.1 6.8 4.3 67 2.6 SE 11 15 6 8 1024.0 1024.0 0.0
29/11:00am 10.3 7.2 3.8 64 2.8 ESE 9 13 5 7 1024.1 1024.1 0.0
29/10:30am 10.1 7.4 3.6 64 2.8 E 7 13 4 7 1024.4 1024.4 0.0
29/10:00am 8.8 6.2 3.2 68 2.4 E 6 9 3 5 1024.8 1024.8 0.0
29/09:30am 8.9 6.1 3.1 67 2.5 E 7 11 4 6 1025.0 1025.0 0.0
29/09:00am 7.7 4.9 3.0 72 2.0 ENE 7 9 4 5 1025.2 1025.2 0.4
29/08:30am 5.6 2.6 2.1 78 1.4 NE 7 9 4 5 1025.0 1025.0 0.4
29/08:00am 4.1 0.7 1.8 85 0.9 NE 9 13 5 7 1024.6 1024.6 0.4
29/07:30am 2.5 -1.1 0.9 89 0.6 NNE 9 13 5 7 1024.5 1024.5 0.4
29/07:00am 1.7 -2.4 0.1 89 0.6 NNE 11 15 6 8 1024.2 1024.2 0.4
29/06:30am 1.8 -1.8 0.3 90 0.6 NNE 9 11 5 6 1023.9 1023.9 0.4
29/06:00am 1.5 -1.8 -0.1 89 0.6 NE 7 9 4 5 1023.5 1023.5 0.4
29/05:30am 1.8 -1.9 0.0 88 0.7 NNE 9 9 5 5 1023.2 1023.2 0.4
29/05:00am 2.2 -1.1 0.4 88 0.7 NNE 7 9 4 5 1023.1 1023.1 0.4
29/04:30am 2.5 -0.7 0.7 88 0.7 ENE 7 7 4 4 1023.0 1023.0 0.4
29/04:00am 2.4 -1.2 0.6 88 0.7 ENE 9 11 5 6 1023.0 1023.0 0.4
29/03:30am 2.7 -0.9 0.8 87 0.7 NNE 9 11 5 6 1023.0 1023.0 0.4
29/03:00am 2.9 -0.6 1.0 87 0.7 NE 9 11 5 6 1023.0 1023.0 0.4
29/02:30am 3.3 -0.2 1.2 86 0.8 NE 9 11 5 6 1023.0 1023.0 0.4
29/02:00am 3.3 -0.6 1.3 87 0.8 NNE 11 13 6 7 1023.2 1023.2 0.4
29/01:30am 3.2 -0.3 1.3 87 0.7 NNE 9 11 5 6 1023.0 1023.0 0.4
29/01:00am 3.4 0.3 1.4 87 0.8 ENE 7 11 4 6 1022.8 1022.8 0.4
29/12:30am 3.4 0.0 1.6 88 0.7 NE 9 15 5 8 1022.7 1022.7 0.4
29/12:00am 3.1 -0.7 1.6 90 0.6 NNE 11 15 6 8 1022.5 1022.5 0.4
 
Date/Time
EST
Temp
°C
App
Temp
°C
Dew
Point
°C
Rel
Hum
%
Delta-T
°C
Wind Press
QNH
hPa
Press
MSL
hPa
Rain since
9am
mm
Dir  Spd
km/h
Gust
km/h
Spd
kts
Gust
kts
28/11:30pm 2.3 -0.9 0.8 90 0.6 NE 7 11 4 6 1022.4 1022.4 0.4
28/11:00pm 2.2 -1.0 0.7 90 0.6 NNE 7 11 4 6 1022.0 1022.0 0.4
28/10:30pm 2.7 -1.2 1.2 90 0.6 NE 11 13 6 7 1021.9 1021.9 0.4
28/10:00pm 2.4 -1.2 0.9 90 0.6 NNE 9 11 5 6 1022.1 1022.1 0.4
28/09:30pm 2.4 -0.8 0.8 89 0.6 NNE 7 9 4 5 1022.0 1022.0 0.4
28/09:00pm 2.8 -0.3 1.2 89 0.6 NE 7 9 4 5 1021.7 1021.7 0.4
28/08:30pm 3.3 -0.2 1.5 88 0.7 N 9 9 5 5 1021.4 1021.4 0.4
28/08:00pm 3.7 0.9 1.9 88 0.7 NNE 6 9 3 5 1021.0 1021.0 0.4
28/07:30pm 3.7 0.6 1.4 85 0.9 NNE 7 9 4 5 1020.7 1020.7 0.4
28/07:00pm 4.7 2.6 1.9 82 1.1 NNE 2 9 1 5 1020.7 1020.7 0.4
28/06:30pm 5.3 3.5 1.2 75 1.6 CALM 0 4 0 2 1020.4 1020.4 0.4
28/06:00pm 6.7 3.6 1.2 68 2.2 SW 7 11 4 6 1020.1 1020.1 0.4
28/05:30pm 7.7 4.2 1.3 64 2.6 WSW 9 13 5 7 1019.9 1019.9 0.4
28/05:00pm 7.7 4.1 0.7 61 2.8 W 9 15 5 8 1019.7 1019.7 0.4
28/04:30pm 8.7 4.4 0.9 58 3.2 WNW 13 17 7 9 1019.4 1019.4 0.4
28/04:00pm 10.2 5.5 0.8 52 3.8 W 15 20 8 11 1019.1 1019.1 0.4
28/03:30pm 10.7 6.1 1.3 52 3.9 WSW 15 20 8 11 1018.8 1018.8 0.4
28/03:00pm 11.0 6.5 2.1 54 3.8 WSW 15 20 8 11 1018.7 1018.7 0.4
28/02:30pm 10.8 6.2 1.6 53 3.9 WSW 15 22 8 12 1018.8 1018.8 0.4
28/02:00pm 11.6 6.5 3.1 56 3.7 WSW 19 26 10 14 1018.8 1018.8 0.4
28/01:30pm 10.0 4.9 0.9 53 3.7 WSW 17 24 9 13 1018.7 1018.7 0.4
28/01:00pm 10.9 6.5 2.5 56 3.6 WNW 15 20 8 11 1018.8 1018.8 0.4
28/12:30pm 10.5 5.5 3.8 63 3.0 WNW 19 30 10 16 1019.1 1019.1 0.4
28/12:00pm 9.1 5.9 3.1 66 2.6 NW 9 13 5 7 1019.1 1019.1 0.4
28/11:30am 8.1 4.2 3.4 72 2.0 WNW 13 24 7 13 1019.1 1019.1 0.0
28/11:00am 8.8 5.3 3.6 70 2.2 E 11 15 6 8 1019.0 1019.0 0.0
28/10:30am 9.5 6.7 5.3 75 1.9 E 9 13 5 7 1018.9 1018.9 0.0

Other Formats:

Comma delimited format used in spreadsheet applications
http://www.bom.gov.au/fwo/IDT60801/IDT60801.94956.axf

JavaScript Object Notation format (JSON) in row-major order
http://www.bom.gov.au/fwo/IDT60801/IDT60801.94956.json